M I D A S
Marine Information and Data Acquisition System
Tripno 666 of the Zeeleeuw from 2004-03-12 07:35:30 to 2004-03-12 13:04:31
Back to CruiseResearch ActivitiesStationsMapUnderway DataData graphs

EquipmentUnitsComments
TimeDGPSUTC
LatitudeDGPSDM.mWGS84
LongitudeDGPSDM.mWGS84
SpeedMeteo Stationm/sRelative wind speed
DirectionMeteo StationdegRelative wind direction
TemperatureMeteo Stationdeg CelciusAir temperature
PressureMeteo StationPaAtmospheric pressure
HumidityMeteo Station%Relative humidity
Missing or incorrect values are displayed as -999
Metereological data collected by the RV Zeeleeuw from 2004-03-12 07:35:30 to 2004-03-12 13:04:31
                                                                                    Next 1000 lines
Time Latitude Longitude Speed Direction Temperature Pressure Humidity
2004-03-12 07:35:38 51°13.673 2°55.768 5.2 32 2.1 100830 71
2004-03-12 07:35:43 51°13.673 2°55.765 5.1 39 2.1 100830 71
2004-03-12 07:35:49 51°13.674 2°55.763 6.8 50 2.1 100830 71
2004-03-12 07:35:53 51°13.675 2°55.762 6.3 55 2.1 100820 71
2004-03-12 07:35:59 51°13.676 2°55.762 5.8 72 2.2 100820 71
2004-03-12 07:36:03 51°13.677 2°55.764 7 58 2.2 100820 71
2004-03-12 07:36:09 51°13.678 2°55.765 6 81 2.1 100820 71
2004-03-12 07:36:14 51°13.68 2°55.766 6 79 2.1 100820 71
2004-03-12 07:36:19 51°13.68 2°55.765 6.7 90 2.1 100820 71
2004-03-12 07:36:24 51°13.68 2°55.764 7.2 101 2.2 100820 71
2004-03-12 07:36:29 51°13.68 2°55.762 7.9 99 2.2 100820 71
2004-03-12 07:36:33 51°13.679 2°55.759 7.3 99 2.2 100820 71
2004-03-12 07:36:39 51°13.678 2°55.756 7.6 100 2.2 100820 70
2004-03-12 07:36:45 51°13.676 2°55.752 6.8 112 2.2 100820 70
2004-03-12 07:36:49 51°13.675 2°55.751 6.6 112 2.1 100820 70
2004-03-12 07:36:54 51°13.676 2°55.749 6.2 108 2.1 100820 70
2004-03-12 07:36:59 51°13.677 2°55.749 6.4 121 2.2 100820 70
2004-03-12 07:37:03 51°13.679 2°55.748 4.9 146 2.2 100820 70
2004-03-12 07:37:09 51°13.683 2°55.747 5.8 134 2.2 100820 71
2004-03-12 07:37:14 51°13.685 2°55.745 6.6 142 2.2 100820 71
2004-03-12 07:37:19 51°13.688 2°55.743 6.1 151 2.2 100820 71
2004-03-12 07:37:23 51°13.69 2°55.741 8.8 131 2.2 100820 71
2004-03-12 07:37:27 51°13.692 2°55.739 8.3 143 2.2 100830 71
2004-03-12 07:37:33 51°13.695 2°55.736 8.3 145 2.2 100830 71
2004-03-12 07:37:39 51°13.698 2°55.732 8.5 151 2.2 100830 71
2004-03-12 07:37:43 51°13.701 2°55.73 6.9 152 2.2 100830 71
2004-03-12 07:37:49 51°13.706 2°55.725 6.7 147 2.2 100820 71
2004-03-12 07:37:53 51°13.71 2°55.721 7.1 150 2.2 100820 71
2004-03-12 07:37:58 51°13.715 2°55.716 6.3 152 2.2 100820 71
2004-03-12 07:38:03 51°13.722 2°55.711 5 137 2.2 100820 71
2004-03-12 07:38:09 51°13.73 2°55.703 5.4 146 2.2 100830 71
2004-03-12 07:38:13 51°13.736 2°55.698 5.1 133 2.2 100830 71
2004-03-12 07:38:19 51°13.745 2°55.691 4.4 127 2.2 100840 70
2004-03-12 07:38:24 51°13.753 2°55.685 4.1 148 2.2 100840 70
2004-03-12 07:38:29 51°13.761 2°55.678 3.5 131 2.2 100840 70
2004-03-12 07:38:33 51°13.768 2°55.673 2.5 114 2.2 100840 70
2004-03-12 07:38:39 51°13.778 2°55.665 2.6 119 2.2 100820 70
2004-03-12 07:38:43 51°13.786 2°55.66 3.2 108 2.2 100820 70
2004-03-12 07:38:49 51°13.797 2°55.652 2.6 84 2.2 100830 71
2004-03-12 07:38:53 51°13.804 2°55.647 2.7 135 2.2 100830 71
2004-03-12 07:38:59 51°13.816 2°55.638 2 123 2.2 100850 71
2004-03-12 07:39:03 51°13.823 2°55.633 1.4 100 2.2 100850 71
2004-03-12 07:39:09 51°13.835 2°55.625 1.6 143 2.2 100850 71
2004-03-12 07:39:13 51°13.843 2°55.62 1.9 134 2.2 100850 71
2004-03-12 07:39:19 51°13.855 2°55.611 2.7 105 2.2 100850 70
2004-03-12 07:39:23 51°13.863 2°55.606 2.8 135 2.2 100850 70
2004-03-12 07:39:29 51°13.875 2°55.598 3 106 2.2 100850 70
2004-03-12 07:39:34 51°13.885 2°55.59 2.6 129 2.2 100850 70
2004-03-12 07:39:37 51°13.892 2°55.586 1.7 147 2.2 100850 70
2004-03-12 07:39:43 51°13.904 2°55.577 2.5 104 2.2 100850 70
2004-03-12 07:39:49 51°13.917 2°55.569 1.7 67 2.2 100850 70
2004-03-12 07:39:54 51°13.927 2°55.561 1.7 85 2.2 100850 70
2004-03-12 07:39:58 51°13.935 2°55.555 2.7 80 2.2 100840 70
2004-03-12 07:40:04 51°13.948 2°55.546 2.3 87 2.2 100840 70
2004-03-12 07:40:09 51°13.959 2°55.539 2.1 113 2.2 100840 70
2004-03-12 07:40:13 51°13.967 2°55.532 2.9 109 2.2 100840 70
2004-03-12 07:40:19 51°13.979 2°55.523 3.3 142 2.2 100840 70
2004-03-12 07:40:23 51°13.988 2°55.517 6 120 2.2 100840 70
2004-03-12 07:40:29 51°14 2°55.508 5.3 134 2.2 100850 70
2004-03-12 07:40:33 51°14.009 2°55.502 6.2 129 2.2 100850 70
2004-03-12 07:40:38 51°14.02 2°55.494 5.4 145 2.2 100850 70
2004-03-12 07:40:43 51°14.031 2°55.486 4.5 146 2.2 100850 70
2004-03-12 07:40:49 51°14.044 2°55.477 5.3 130 2.2 100850 70
2004-03-12 07:40:53 51°14.053 2°55.47 5 133 2.2 100850 70
2004-03-12 07:40:59 51°14.067 2°55.461 4.2 128 2.2 100830 70
2004-03-12 07:41:03 51°14.076 2°55.454 4.5 128 2.2 100830 70
2004-03-12 07:41:07 51°14.085 2°55.447 3.7 127 2.2 100830 69
2004-03-12 07:41:13 51°14.098 2°55.437 3.8 101 2.2 100830 69
2004-03-12 07:41:19 51°14.112 2°55.426 4.3 119 2.2 100820 69
2004-03-12 07:41:23 51°14.12 2°55.419 4.3 123 2.2 100820 69
2004-03-12 07:41:29 51°14.134 2°55.407 4.2 116 2.2 100820 70
2004-03-12 07:41:33 51°14.144 2°55.399 4.5 147 2.2 100820 70
2004-03-12 07:41:39 51°14.158 2°55.386 3.5 129 2.2 100840 71
2004-03-12 07:41:43 51°14.168 2°55.376 3.8 126 2.2 100840 71
2004-03-12 07:41:49 51°14.183 2°55.361 3.3 145 2.3 100830 71
2004-03-12 07:41:54 51°14.195 2°55.347 2.4 106 2.3 100830 71
2004-03-12 07:41:59 51°14.208 2°55.333 2.3 149 2.2 100840 70
2004-03-12 07:42:04 51°14.22 2°55.317 2.4 147 2.2 100840 70
2004-03-12 07:42:07 51°14.227 2°55.308 2.6 118 2.2 100840 70
2004-03-12 07:42:13 51°14.241 2°55.288 2 146 2.2 100840 70
2004-03-12 07:42:19 51°14.255 2°55.266 1.8 149 2.2 100840 70
2004-03-12 07:42:23 51°14.263 2°55.251 1.1 125 2.2 100840 70
2004-03-12 07:42:29 51°14.277 2°55.228 0.7 151 2.2 100840 70
2004-03-12 07:42:34 51°14.288 2°55.209 0.8 133 2.2 100840 70
2004-03-12 07:42:39 51°14.299 2°55.188 0.2 101 2.2 100840 70
2004-03-12 07:42:43 51°14.307 2°55.171 1 51 2.2 100840 70
2004-03-12 07:42:49 51°14.32 2°55.145 0.7 50 2.2 100840 70
2004-03-12 07:42:53 51°14.328 2°55.127 0.7 16 2.2 100840 70
2004-03-12 07:42:59 51°14.34 2°55.101 0.5 14 2.2 100840 70
2004-03-12 07:43:03 51°14.348 2°55.083 0.3 12 2.2 100840 70
2004-03-12 07:43:09 51°14.36 2°55.057 0.2 12 2.2 100840 70
2004-03-12 07:43:14 51°14.37 2°55.034 0.1 12 2.2 100840 70
2004-03-12 07:43:19 51°14.38 2°55.011 0.1 5 2.2 100850 70
2004-03-12 07:43:23 51°14.388 2°54.993 0.5 265 2.2 100850 70
2004-03-12 07:43:29 51°14.4 2°54.965 0.7 221 2.2 100840 70
2004-03-12 07:43:33 51°14.408 2°54.946 0.5 217 2.2 100840 70
2004-03-12 07:43:39 51°14.42 2°54.919 0.2 142 2.3 100850 70
2004-03-12 07:43:43 51°14.428 2°54.902 1.4 143 2.3 100850 70
2004-03-12 07:43:49 51°14.441 2°54.877 2.2 141 2.3 100850 70
2004-03-12 07:43:53 51°14.449 2°54.862 2.2 126 2.3 100850 70
2004-03-12 07:43:57 51°14.457 2°54.847 2.6 84 2.3 100840 70
2004-03-12 07:44:03 51°14.469 2°54.827 3.3 126 2.3 100840 70
2004-03-12 07:44:08 51°14.479 2°54.81 3 141 2.3 100860 70
2004-03-12 07:44:13 51°14.489 2°54.794 3.9 151 2.3 100860 70
2004-03-12 07:44:19 51°14.5 2°54.776 3.1 136 2.3 100850 70
2004-03-12 07:44:23 51°14.508 2°54.763 1.9 160 2.3 100850 70
2004-03-12 07:44:29 51°14.519 2°54.745 2.3 148 2.3 100850 70
2004-03-12 07:44:33 51°14.526 2°54.734 2.3 111 2.3 100850 70
2004-03-12 07:44:37 51°14.533 2°54.722 2.6 142 2.3 100830 70
2004-03-12 07:44:43 51°14.544 2°54.706 2.9 140 2.3 100830 70
2004-03-12 07:44:49 51°14.554 2°54.689 4 149 2.3 100830 70
2004-03-12 07:44:54 51°14.563 2°54.676 4.4 165 2.3 100830 70
2004-03-12 07:44:59 51°14.571 2°54.663 3.6 154 2.3 100830 70
2004-03-12 07:45:03 51°14.578 2°54.653 4.3 149 2.3 100830 70
2004-03-12 07:45:09 51°14.589 2°54.638 4.3 149 2.3 100830 70
2004-03-12 07:45:14 51°14.597 2°54.626 4.2 138 2.3 100830 70
2004-03-12 07:45:18 51°14.603 2°54.617 4.7 145 2.3 100830 70
2004-03-12 07:45:24 51°14.613 2°54.604 5.9 143 2.3 100830 70
2004-03-12 07:45:29 51°14.62 2°54.595 6.6 226 2.3 100820 71
2004-03-12 07:45:33 51°14.626 2°54.587 6.3 137 2.3 100820 71
2004-03-12 07:45:38 51°14.633 2°54.579 6.3 132 2.3 100820 70
2004-03-12 07:45:44 51°14.642 2°54.57 7.3 136 2.3 100820 70
2004-03-12 07:45:49 51°14.649 2°54.563 8.4 143 2.3 100820 70
2004-03-12 07:45:53 51°14.654 2°54.558 7.5 140 2.3 100820 70
2004-03-12 07:45:59 51°14.662 2°54.551 6.9 141 2.3 100820 70
2004-03-12 07:46:04 51°14.668 2°54.546 6.6 134 2.3 100820 70
2004-03-12 07:46:09 51°14.674 2°54.541 7 130 2.3 100810 70
2004-03-12 07:46:13 51°14.679 2°54.537 8.8 124 2.3 100810 70
2004-03-12 07:46:19 51°14.685 2°54.533 8 132 2.2 100810 70
2004-03-12 07:46:23 51°14.69 2°54.529 7.4 132 2.2 100810 70
2004-03-12 07:46:29 51°14.696 2°54.525 7.3 127 2.3 100810 71
2004-03-12 07:46:33 51°14.7 2°54.522 8.2 128 2.3 100810 71
2004-03-12 07:46:39 51°14.706 2°54.519 7.9 133 2.3 100810 71
2004-03-12 07:46:43 51°14.711 2°54.516 7.3 137 2.3 100810 71
2004-03-12 07:46:49 51°14.716 2°54.513 7 135 2.3 100800 70
2004-03-12 07:46:53 51°14.72 2°54.51 8.1 141 2.3 100800 70
2004-03-12 07:46:59 51°14.725 2°54.507 7.7 135 2.3 100800 70
2004-03-12 07:47:03 51°14.729 2°54.504 7.7 130 2.3 100800 70
2004-03-12 07:47:09 51°14.734 2°54.501 8.1 139 2.3 100800 70
2004-03-12 07:47:13 51°14.737 2°54.499 8.6 136 2.3 100800 70
2004-03-12 07:47:19 51°14.741 2°54.495 8.4 133 2.2 100810 69
2004-03-12 07:47:23 51°14.744 2°54.493 8.9 141 2.2 100810 69
2004-03-12 07:47:29 51°14.749 2°54.49 8.7 135 2.2 100810 70
2004-03-12 07:47:33 51°14.752 2°54.488 7.1 140 2.2 100810 70
2004-03-12 07:47:39 51°14.756 2°54.485 7 134 2.2 100810 70
2004-03-12 07:47:43 51°14.759 2°54.483 7.8 130 2.2 100810 70
2004-03-12 07:47:49 51°14.763 2°54.48 7.8 128 2.2 100800 70
2004-03-12 07:47:53 51°14.766 2°54.478 8.4 134 2.2 100800 70
2004-03-12 07:47:59 51°14.77 2°54.475 8.8 138 2.2 100800 70
2004-03-12 07:48:04 51°14.773 2°54.473 9 130 2.2 100800 69
2004-03-12 07:48:09 51°14.776 2°54.471 8.2 123 2.2 100800 70
2004-03-12 07:48:14 51°14.779 2°54.468 8.8 130 2.2 100800 70
2004-03-12 07:48:19 51°14.783 2°54.466 9.6 134 2.2 100800 71
2004-03-12 07:48:23 51°14.785 2°54.464 10 133 2.2 100800 71
2004-03-12 07:48:29 51°14.788 2°54.461 9.3 136 2.2 100800 71
2004-03-12 07:48:33 51°14.791 2°54.459 9.7 132 2.2 100800 71
2004-03-12 07:48:39 51°14.794 2°54.456 9.4 134 2.2 100800 71
2004-03-12 07:48:43 51°14.797 2°54.454 9.2 137 2.2 100800 71
2004-03-12 07:48:49 51°14.8 2°54.451 8.3 44 2.2 100790 70
2004-03-12 07:48:53 51°14.803 2°54.45 8.5 139 2.2 100790 70
2004-03-12 07:48:59 51°14.807 2°54.446 7.7 147 2.2 100800 70
2004-03-12 07:49:03 51°14.811 2°54.443 8.6 144 2.2 100800 70
2004-03-12 07:49:09 51°14.817 2°54.437 8.6 152 2.2 100790 70
2004-03-12 07:49:13 51°14.821 2°54.432 6.8 150 2.2 100790 70
2004-03-12 07:49:19 51°14.829 2°54.422 6.9 156 2.2 100800 70
2004-03-12 07:49:23 51°14.835 2°54.415 5.8 149 2.2 100800 70
2004-03-12 07:49:29 51°14.846 2°54.402 5.8 143 2.2 100810 70
2004-03-12 07:49:34 51°14.856 2°54.392 4.6 137 2.2 100810 70
2004-03-12 07:49:39 51°14.866 2°54.381 4.9 133 2.2 100820 70
2004-03-12 07:49:43 51°14.876 2°54.372 6.1 45 2.2 100820 70
2004-03-12 07:49:49 51°14.89 2°54.357 6.9 131 2.2 100810 70
2004-03-12 07:49:53 51°14.9 2°54.346 5.2 117 2.2 100810 70
2004-03-12 07:49:59 51°14.916 2°54.329 6.8 125 2.2 100810 70
2004-03-12 07:50:03 51°14.927 2°54.318 6.6 135 2.2 100810 70
2004-03-12 07:50:09 51°14.944 2°54.299 7 123 2.2 100810 70
2004-03-12 07:50:13 51°14.956 2°54.287 7 129 2.2 100810 70
2004-03-12 07:50:19 51°14.974 2°54.268 6.4 128 2.2 100800 71
2004-03-12 07:50:23 51°14.986 2°54.255 5.9 120 2.2 100800 71
2004-03-12 07:50:29 51°15.004 2°54.236 6.9 122 2.2 100810 71
2004-03-12 07:50:33 51°15.016 2°54.223 6.1 129 2.2 100810 71
2004-03-12 07:50:39 51°15.035 2°54.204 5.1 141 2.3 100810 70
2004-03-12 07:50:43 51°15.047 2°54.19 4.5 133 2.3 100810 70
2004-03-12 07:50:47 51°15.06 2°54.177 4.5 136 2.2 100810 70
2004-03-12 07:50:53 51°15.078 2°54.156 3.4 105 2.2 100810 70
2004-03-12 07:50:59 51°15.096 2°54.135 3.7 116 2.2 100810 70
2004-03-12 07:51:03 51°15.109 2°54.121 4.8 122 2.2 100810 70
2004-03-12 07:51:09 51°15.128 2°54.099 4 122 2.2 100810 69
2004-03-12 07:51:13 51°15.14 2°54.084 4.4 110 2.2 100810 69
2004-03-12 07:51:19 51°15.159 2°54.063 4.7 127 2.3 100820 70
2004-03-12 07:51:23 51°15.172 2°54.049 4.7 130 2.3 100820 70
2004-03-12 07:51:29 51°15.191 2°54.028 5.3 115 2.3 100810 71
2004-03-12 07:51:33 51°15.204 2°54.015 5.7 108 2.3 100810 71
2004-03-12 07:51:39 51°15.225 2°53.996 6.2 106 2.3 100810 72
2004-03-12 07:51:43 51°15.238 2°53.985 6.3 101 2.3 100810 72
2004-03-12 07:51:49 51°15.259 2°53.968 7.9 111 2.3 100810 71
2004-03-12 07:51:53 51°15.274 2°53.958 7.1 112 2.3 100810 71
2004-03-12 07:51:59 51°15.295 2°53.943 6.1 107 2.3 100810 71
2004-03-12 07:52:03 51°15.31 2°53.934 6.3 96 2.3 100810 71
2004-03-12 07:52:09 51°15.331 2°53.919 6.2 116 2.3 100810 70
2004-03-12 07:52:13 51°15.346 2°53.91 6.2 96 2.3 100810 70
2004-03-12 07:52:19 51°15.367 2°53.894 4.5 114 2.3 100810 70
2004-03-12 07:52:23 51°15.381 2°53.882 3.4 96 2.3 100810 70
2004-03-12 07:52:29 51°15.401 2°53.864 4.6 105 2.3 100810 71
2004-03-12 07:52:33 51°15.415 2°53.851 5.3 113 2.3 100810 71
2004-03-12 07:52:39 51°15.435 2°53.832 5.2 111 2.3 100810 71
2004-03-12 07:52:43 51°15.449 2°53.819 5.1 111 2.3 100810 71
2004-03-12 07:52:49 51°15.469 2°53.8 4.7 102 2.3 100810 71
2004-03-12 07:52:54 51°15.486 2°53.784 4.6 107 2.3 100810 71
2004-03-12 07:52:59 51°15.504 2°53.769 5.7 103 2.3 100810 71
2004-03-12 07:53:03 51°15.517 2°53.757 6 104 2.3 100810 71
2004-03-12 07:53:09 51°15.538 2°53.739 5.7 116 2.3 100810 71
2004-03-12 07:53:13 51°15.552 2°53.728 5.7 111 2.3 100810 71
2004-03-12 07:53:19 51°15.574 2°53.712 5.1 113 2.3 100810 71
2004-03-12 07:53:23 51°15.588 2°53.701 4.6 106 2.3 100810 71
2004-03-12 07:53:29 51°15.609 2°53.685 5.7 108 2.3 100810 71
2004-03-12 07:53:34 51°15.627 2°53.672 5.8 90 2.3 100810 71
2004-03-12 07:53:39 51°15.645 2°53.658 5.1 98 2.3 100810 70
2004-03-12 07:53:43 51°15.66 2°53.648 4.7 121 2.3 100810 70
2004-03-12 07:53:49 51°15.681 2°53.631 4.5 118 2.3 100810 71
2004-03-12 07:53:53 51°15.695 2°53.62 4.7 96 2.3 100810 71
2004-03-12 07:53:59 51°15.717 2°53.604 5.8 93 2.3 100810 71
2004-03-12 07:54:03 51°15.731 2°53.592 6.2 101 2.3 100810 71
2004-03-12 07:54:09 51°15.752 2°53.576 6.5 113 2.3 100810 70
2004-03-12 07:54:13 51°15.766 2°53.565 6.5 115 2.3 100810 70
2004-03-12 07:54:19 51°15.788 2°53.548 7 119 2.3 100810 71
2004-03-12 07:54:23 51°15.802 2°53.537 4.9 120 2.3 100810 71
2004-03-12 07:54:29 51°15.823 2°53.52 5.3 125 2.3 100810 71
2004-03-12 07:54:33 51°15.837 2°53.508 6 110 2.3 100810 71
2004-03-12 07:54:39 51°15.858 2°53.492 4.6 114 2.3 100810 71
2004-03-12 07:54:43 51°15.873 2°53.481 5.8 114 2.3 100810 71
2004-03-12 07:54:49 51°15.894 2°53.464 5.5 119 2.4 100810 71
2004-03-12 07:54:53 51°15.908 2°53.453 5 103 2.4 100810 71
2004-03-12 07:54:59 51°15.93 2°53.437 4.6 109 2.3 100800 71
2004-03-12 07:55:03 51°15.944 2°53.426 4.3 118 2.3 100800 71
2004-03-12 07:55:09 51°15.965 2°53.409 5.3 103 2.3 100810 71
2004-03-12 07:55:14 51°15.983 2°53.396 6.9 113 2.3 100810 71
2004-03-12 07:55:19 51°16.001 2°53.382 7.6 115 2.3 100800 71
2004-03-12 07:55:24 51°16.019 2°53.369 6.6 121 2.3 100800 71
2004-03-12 07:55:27 51°16.03 2°53.361 7 122 2.4 100810 71
2004-03-12 07:55:33 51°16.051 2°53.345 6.7 123 2.4 100810 71
2004-03-12 07:55:39 51°16.072 2°53.328 8 130 2.4 100800 71
2004-03-12 07:55:43 51°16.087 2°53.318 7.6 128 2.4 100800 71
2004-03-12 07:55:49 51°16.109 2°53.302 8 128 2.3 100800 70
2004-03-12 07:55:53 51°16.123 2°53.291 7 122 2.3 100800 70
2004-03-12 07:55:59 51°16.145 2°53.275 6.9 125 2.3 100800 70
2004-03-12 07:56:03 51°16.159 2°53.264 5.7 123 2.3 100800 70
2004-03-12 07:56:09 51°16.181 2°53.248 5.3 130 2.3 100800 70
2004-03-12 07:56:13 51°16.195 2°53.238 4.9 128 2.3 100800 70
2004-03-12 07:56:19 51°16.217 2°53.221 4.8 124 2.4 100800 70
2004-03-12 07:56:23 51°16.231 2°53.211 5 130 2.4 100800 70
2004-03-12 07:56:29 51°16.252 2°53.195 5.5 123 2.4 100800 70
2004-03-12 07:56:33 51°16.267 2°53.184 4.6 123 2.4 100800 70
2004-03-12 07:56:39 51°16.288 2°53.168 5.1 127 2.3 100800 69
2004-03-12 07:56:43 51°16.303 2°53.157 5.5 120 2.3 100800 69
2004-03-12 07:56:49 51°16.324 2°53.141 4.6 111 2.4 100800 70
2004-03-12 07:56:51 51°16.331 2°53.136 5 111 2.4 100800 70
2004-03-12 07:56:59 51°16.36 2°53.114 5.4 124 2.4 100800 71
2004-03-12 07:57:03 51°16.374 2°53.103 5.7 122 2.4 100800 71
2004-03-12 07:57:09 51°16.396 2°53.087 6.9 118 2.4 100800 72
2004-03-12 07:57:11 51°16.403 2°53.081 5.7 120 2.4 100800 72
2004-03-12 07:57:19 51°16.431 2°53.06 6.8 138 2.4 100800 73
2004-03-12 07:57:23 51°16.446 2°53.05 5.4 135 2.4 100800 73
2004-03-12 07:57:29 51°16.467 2°53.034 5 128 2.4 100800 73
2004-03-12 07:57:33 51°16.482 2°53.023 5.2   2.4 100800 73
2004-03-12 07:57:39 51°16.503 2°53.007 4.9 129 2.4 100790 72
2004-03-12 07:57:43 51°16.517 2°52.996 4.5 120 2.4 100790 72
2004-03-12 07:57:49 51°16.539 2°52.98 4.6 107 2.4 100790 72
2004-03-12 07:57:53 51°16.553 2°52.969 5.8 117 2.4 100790 72
2004-03-12 07:57:57 51°16.567 2°52.958 5.8 120 2.4 100790 72
2004-03-12 07:58:03 51°16.588 2°52.941 5.7 112 2.4 100790 72
2004-03-12 07:58:09 51°16.61 2°52.925 5.1 104 2.5 100790 72
2004-03-12 07:58:13 51°16.624 2°52.914 5.3 113 2.5 100790 72
2004-03-12 07:58:19 51°16.645 2°52.898 5.8 101 2.5 100790 72
2004-03-12 07:58:23 51°16.659 2°52.887 6.5 110 2.5 100790 72
2004-03-12 07:58:29 51°16.681 2°52.871 6.8 118 2.5 100790 73
2004-03-12 07:58:33 51°16.695 2°52.861 6.9   2.5 100790 73
2004-03-12 07:58:39 51°16.716 2°52.845 6.7 120 2.5 100790 73
2004-03-12 07:58:43 51°16.731 2°52.835 6.3 115 2.5 100790 73
2004-03-12 07:58:49 51°16.752 2°52.819 5.9 130 2.5 100790 73
2004-03-12 07:58:53 51°16.766 2°52.808 5.5 132 2.5 100790 73
2004-03-12 07:58:59 51°16.787 2°52.792 5.4 124 2.5 100790 72
2004-03-12 07:59:04 51°16.804 2°52.779 5.4 131 2.5 100790 72
2004-03-12 07:59:09 51°16.821 2°52.767 5.2 112 2.5 100790 72
2004-03-12 07:59:14 51°16.839 2°52.753 5.7 108 2.5 100790 72
2004-03-12 07:59:19 51°16.856 2°52.74 5.7 121 2.5 100790 72
2004-03-12 07:59:23 51°16.87 2°52.729 6.8 120 2.5 100790 71
2004-03-12 07:59:29 51°16.89 2°52.714 6.5 121 2.5 100800 72
2004-03-12 07:59:33 51°16.904 2°52.703 7.1 120 2.5 100800 72
2004-03-12 07:59:39 51°16.925 2°52.687 6.3 117 2.5 100790 72
2004-03-12 07:59:44 51°16.943 2°52.674 7.4 115 2.5 100790 72
2004-03-12 07:59:49 51°16.96 2°52.661 6.7 126 2.5 100790 72
2004-03-12 07:59:53 51°16.974 2°52.65 6.4 120 2.5 100790 71
2004-03-12 07:59:59 51°16.996 2°52.634 5.4 120 2.4 100790 70
2004-03-12 08:00:03 51°17.01 2°52.623 5.7 123 2.4 100790 70
2004-03-12 08:00:09 51°17.031 2°52.606 5.8 119 2.4 100790 70
2004-03-12 08:00:13 51°17.045 2°52.596 6.1 119 2.4 100800 69
2004-03-12 08:00:19 51°17.067 2°52.58 4.8 110 2.4 100800 69
2004-03-12 08:00:23 51°17.081 2°52.569 5.7 106 2.4 100790 70
2004-03-12 08:00:29 51°17.102 2°52.553 5.5 111 2.4 100800 69
2004-03-12 08:00:33 51°17.116 2°52.543 5.4 107 2.4 100800 69
2004-03-12 08:00:39 51°17.137 2°52.527 5.4 122 2.4 100800 69
2004-03-12 08:00:43 51°17.151 2°52.517 6.2 106 2.4 100800 70
2004-03-12 08:00:49 51°17.172 2°52.5 6.1 114 2.4 100800 71
2004-03-12 08:00:54 51°17.19 2°52.486 6.6 121 2.4 100800 71
2004-03-12 08:00:59 51°17.207 2°52.471 6.2 116 2.4 100800 71
2004-03-12 08:01:03 51°17.22 2°52.459 5.7 123 2.5 100800 72
2004-03-12 08:01:09 51°17.241 2°52.439 4.1 122 2.5 100800 72
2004-03-12 08:01:13 51°17.254 2°52.426 4.1 121 2.5 100800 72
2004-03-12 08:01:19 51°17.275 2°52.407 4.7 131 2.5 100800 72
2004-03-12 08:01:23 51°17.288 2°52.394 4.2 100 2.5 100800 71
2004-03-12 08:01:29 51°17.309 2°52.375 4.5 116 2.5 100800 71
2004-03-12 08:01:33 51°17.322 2°52.362 5.5 115 2.4 100800 70
2004-03-12 08:01:39 51°17.342 2°52.341 6.2 123 2.4 100800 70
2004-03-12 08:01:43 51°17.355 2°52.327 5.3 124 2.4 100800 71
2004-03-12 08:01:49 51°17.375 2°52.305 5.2 128 2.4 100800 71
2004-03-12 08:01:53 51°17.388 2°52.29 5.2 133 2.5 100750 71
2004-03-12 08:01:59 51°17.406 2°52.267 4.5 138 2.5 100750 71
2004-03-12 08:02:03 51°17.419 2°52.252 5.1 146 2.4 100740 71
2004-03-12 08:02:09 51°17.438 2°52.229 5 225 2.5 100750 70
2004-03-12 08:02:14 51°17.454 2°52.21 3.9 148 2.5 100750 70
2004-03-12 08:02:19 51°17.47 2°52.191 4.7 45 2.4 100750 70
2004-03-12 08:02:23 51°17.483 2°52.176 6.2 137 2.4 100750 70
2004-03-12 08:02:29 51°17.502 2°52.154 5.1 142 2.4 100750 70
2004-03-12 08:02:33 51°17.514 2°52.139 5 143 2.4 100750 70
2004-03-12 08:02:39 51°17.534 2°52.117 5 144 2.4 100750 70
2004-03-12 08:02:43 51°17.546 2°52.102 3.2 125 2.4 100750 70
2004-03-12 08:02:49 51°17.564 2°52.077 3 131 2.4 100750 70
2004-03-12 08:02:53 51°17.576 2°52.059 3 164 2.4 100750 70
2004-03-12 08:02:59 51°17.593 2°52.033 2.5 164 2.4 100750 70
2004-03-12 08:03:03 51°17.604 2°52.015 1.9 110 2.4 100790 70
2004-03-12 08:03:09 51°17.621 2°51.988 1.9 139 2.4 100790 70
2004-03-12 08:03:13 51°17.632 2°51.97 2.9 122 2.4 100750 71
2004-03-12 08:03:19 51°17.649 2°51.943 2.7 117 2.5 100750 72
2004-03-12 08:03:23 51°17.66 2°51.925 3.2 141 2.5 100750 72
2004-03-12 08:03:29 51°17.676 2°51.898 3 129 2.5 100750 72
2004-03-12 08:03:34 51°17.69 2°51.875 4.1 44 2.5 100750 72
2004-03-12 08:03:39 51°17.704 2°51.853 5 140 2.5 100750 72
2004-03-12 08:03:43 51°17.715 2°51.835 4.3 139 2.5 100750 72
2004-03-12 08:03:49 51°17.732 2°51.808 4.5 138 2.5 100750 72
2004-03-12 08:03:53 51°17.743 2°51.79 4.3 139 2.5 100750 72
2004-03-12 08:03:59 51°17.76 2°51.763 3.9 151 2.5 100750 72
2004-03-12 08:04:04 51°17.774 2°51.74 3.8 144 2.5 100750 72
2004-03-12 08:04:09 51°17.788 2°51.718 3.9 144 2.5 100750 72
2004-03-12 08:04:13 51°17.799 2°51.7 3.7 138 2.5 100750 72
2004-03-12 08:04:19 51°17.816 2°51.673 3.7 143 2.5 100750 72
2004-03-12 08:04:23 51°17.827 2°51.655 3.5 144 2.5 100750 71
2004-03-12 08:04:29 51°17.844 2°51.629 3.4 144 2.5 100750 70
2004-03-12 08:04:34 51°17.858 2°51.606 3.2 142 2.5 100750 70
2004-03-12 08:04:39 51°17.872 2°51.584 2.6 150 2.5 100750 70
2004-03-12 08:04:43 51°17.884 2°51.566 2.5 135 2.5 100750 70
2004-03-12 08:04:49 51°17.9 2°51.538 2.8 139 2.5 100750 70
2004-03-12 08:04:53 51°17.912 2°51.52 2.8 106 2.5 100750 70
2004-03-12 08:04:59 51°17.928 2°51.492 3.4 118 2.5 100750 70
2004-03-12 08:05:03 51°17.94 2°51.474 4 153 2.5 100750 70
2004-03-12 08:05:09 51°17.956 2°51.447 4.3 128 2.5 100750 71
2004-03-12 08:05:14 51°17.97 2°51.424 5.2 127 2.5 100750 71
2004-03-12 08:05:19 51°17.985 2°51.401 4.8 44 2.5 100750 71
2004-03-12 08:05:23 51°17.996 2°51.383 4.1 129 2.5 100750 71
2004-03-12 08:05:29 51°18.014 2°51.356 4.8 146 2.5 100750 71
2004-03-12 08:05:33 51°18.025 2°51.338 4.7 147 2.5 100740 72
2004-03-12 08:05:39 51°18.043 2°51.311 4.9 145 2.5 100740 71
2004-03-12 08:05:43 51°18.054 2°51.292 3.9 149 2.5 100740 71
2004-03-12 08:05:49 51°18.072 2°51.265 3.8 151 2.5 100740 71
2004-03-12 08:05:54 51°18.086 2°51.243 3.5 149 2.5 100740 71
2004-03-12 08:05:59 51°18.1 2°51.219 3.5 159 2.5 100740 71
2004-03-12 08:06:03 51°18.112 2°51.202 2.4 147 2.5 100750 71
2004-03-12 08:06:09 51°18.13 2°51.174 2 130 2.5 100750 71
2004-03-12 08:06:13 51°18.141 2°51.156 2.1 137 2.5 100750 70
2004-03-12 08:06:19 51°18.159 2°51.129 3.1 151 2.5 100750 70
2004-03-12 08:06:24 51°18.173 2°51.107 2.9 123 2.5 100750 70
2004-03-12 08:06:29 51°18.187 2°51.084 2.9 135 2.5 100740 71
2004-03-12 08:06:33 51°18.198 2°51.066 2.8 123 2.5 100740 71
2004-03-12 08:06:39 51°18.215 2°51.038 2.2 108 2.5 100740 71
2004-03-12 08:06:43 51°18.225 2°51.018 1.8 117 2.5 100750 71
2004-03-12 08:06:49 51°18.241 2°50.989 1.6 163 2.5 100750 71
2004-03-12 08:06:53 51°18.251 2°50.968 1.8 124 2.5 100740 72
2004-03-12 08:06:59 51°18.266 2°50.938 2.3 152 2.5 100740 72
2004-03-12 08:07:03 51°18.275 2°50.917 2.4 148 2.5 100740 72
2004-03-12 08:07:09 51°18.29 2°50.886 2.5 169 2.5 100740 72
2004-03-12 08:07:13 51°18.3 2°50.866 2 164 2.6 100740 72
2004-03-12 08:07:19 51°18.314 2°50.835 1.6 132 2.6 100740 72
2004-03-12 08:07:23 51°18.324 2°50.815 2.2 129 2.6 100740 72
2004-03-12 08:07:29 51°18.339 2°50.784 3.4 149 2.6 100750 72
2004-03-12 08:07:34 51°18.351 2°50.759 3 154 2.6 100750 72
2004-03-12 08:07:39 51°18.363 2°50.733 3 160 2.6 100750 72
2004-03-12 08:07:43 51°18.372 2°50.712 3.3 129 2.6 100750 72
2004-03-12 08:07:49 51°18.387 2°50.681 2.5 134 2.6 100750 72
2004-03-12 08:07:53 51°18.396 2°50.66 3.1 140 2.6 100740 72
2004-03-12 08:07:59 51°18.411 2°50.629 3.4 148 2.6 100740 72
2004-03-12 08:08:03 51°18.421 2°50.608 4.3 165 2.6 100740 72
2004-03-12 08:08:09 51°18.435 2°50.577 3.3 161 2.6 100740 72
2004-03-12 08:08:13 51°18.445 2°50.557 2.9 143 2.6 100740 72
2004-03-12 08:08:19 51°18.46 2°50.526 3.4 155 2.6 100740 72
2004-03-12 08:08:23 51°18.469 2°50.505 3.2 157 2.6 100740 72
2004-03-12 08:08:29 51°18.484 2°50.474 3.5 149 2.6 100740 71
2004-03-12 08:08:34 51°18.496 2°50.449 3.1 145 2.6 100740 71
2004-03-12 08:08:39 51°18.508 2°50.423 3.2 135 2.6 100740 71
2004-03-12 08:08:43 51°18.518 2°50.403 3.3 129 2.6 100740 71
2004-03-12 08:08:49 51°18.533 2°50.372 3.3 128 2.6 100740 71
2004-03-12 08:08:54 51°18.545 2°50.346 3.3 145 2.6 100740 71
2004-03-12 08:08:59 51°18.558 2°50.321 4.5 133 2.6 100740 71
2004-03-12 08:09:03 51°18.568 2°50.3 4.5 151 2.6 100740 71
2004-03-12 08:09:09 51°18.582 2°50.27 4.5 142 2.6 100740 71
2004-03-12 08:09:13 51°18.592 2°50.25 4.2 150 2.6 100740 71
2004-03-12 08:09:19 51°18.607 2°50.219 4.7 151 2.6 100740 72
2004-03-12 08:09:23 51°18.618 2°50.199 4 145 2.6 100740 72
2004-03-12 08:09:29 51°18.633 2°50.168 4.5 153 2.6 100740 72
2004-03-12 08:09:34 51°18.645 2°50.142 4.5 158 2.6 100740 71
2004-03-12 08:09:39 51°18.657 2°50.118 4.4 164 2.6 100740 71
2004-03-12 08:09:43 51°18.667 2°50.097 3.3 149 2.6 100740 71
2004-03-12 08:09:49 51°18.682 2°50.066 3.8 161 2.6 100740 71
2004-03-12 08:09:53 51°18.691 2°50.046 3.8 160 2.6 100740 71
2004-03-12 08:09:59 51°18.706 2°50.015 3.8 150 2.6 100740 71
2004-03-12 08:10:03 51°18.716 2°49.995 3.4 137 2.6 100740 70
2004-03-12 08:10:09 51°18.731 2°49.964 3.2 145 2.6 100740 70
2004-03-12 08:10:14 51°18.743 2°49.939 4.1 152 2.6 100740 70
2004-03-12 08:10:19 51°18.756 2°49.913 4.2 160 2.6 100740 70
2004-03-12 08:10:23 51°18.765 2°49.893 4.1 168 2.6 100740 70
2004-03-12 08:10:29 51°18.78 2°49.862 3.8 168 2.6 100740 70
2004-03-12 08:10:33 51°18.79 2°49.842 2.6 165 2.6 100740 70
2004-03-12 08:10:39 51°18.805 2°49.812 3.4 229 2.6 100740 70
2004-03-12 08:10:44 51°18.817 2°49.787 3.8 164 2.6 100740 70
2004-03-12 08:10:49 51°18.829 2°49.761 4.4 165 2.6 100740 70
2004-03-12 08:10:53 51°18.839 2°49.741 4 151 2.6 100740 70
2004-03-12 08:10:59 51°18.854 2°49.711 2.9 165 2.6 100740 71
2004-03-12 08:11:03 51°18.863 2°49.69 4.4 168 2.6 100740 71
2004-03-12 08:11:09 51°18.878 2°49.659 2.8 177 2.6 100740 71
2004-03-12 08:11:13 51°18.888 2°49.638 3.2 170 2.6 100740 71
2004-03-12 08:11:19 51°18.902 2°49.608 3.5 159 2.6 100740 72
2004-03-12 08:11:23 51°18.912 2°49.587 3.8 153 2.6 100740 72
2004-03-12 08:11:29 51°18.927 2°49.557 3.1 150 2.6 100740 72
2004-03-12 08:11:34 51°18.939 2°49.53 3.9   2.6 100740 72
2004-03-12 08:11:39 51°18.951 2°49.505 3.4 169 2.6 100740 72
2004-03-12 08:11:43 51°18.961 2°49.484 3.6 162 2.6 100740 72
2004-03-12 08:11:49 51°18.977 2°49.453 3.3 164 2.6 100740 72
2004-03-12 08:11:53 51°18.987 2°49.433 2.9 147 2.6 100740 72
2004-03-12 08:11:59 51°19.002 2°49.401 2.6 154 2.6 100740 72
2004-03-12 08:12:03 51°19.012 2°49.381 2.5 144 2.6 100740 72
2004-03-12 08:12:09 51°19.027 2°49.35 3.8 160 2.7 100740 72
2004-03-12 08:12:13 51°19.037 2°49.328 2.9 164 2.7 100740 72
2004-03-12 08:12:19 51°19.051 2°49.296 3.9 169 2.7 100740 72
2004-03-12 08:12:23 51°19.061 2°49.275 4.1 168 2.7 100730 72
2004-03-12 08:12:29 51°19.076 2°49.243 5.8 153 2.7 100730 72
2004-03-12 08:12:33 51°19.086 2°49.222 5.4 163 2.7 100730 72
2004-03-12 08:12:39 51°19.101 2°49.191 5.1 162 2.7 100730 72
2004-03-12 08:12:43 51°19.111 2°49.17 5.3 173 2.7 100740 72
2004-03-12 08:12:49 51°19.126 2°49.139 4.8 171 2.7 100740 72
2004-03-12 08:12:53 51°19.136 2°49.118 4 168 2.7 100730 71
2004-03-12 08:12:59 51°19.151 2°49.086 4.2 166 2.7 100730 71
2004-03-12 08:13:03 51°19.161 2°49.066 3.8 172 2.7 100730 71
2004-03-12 08:13:09 51°19.176 2°49.035 3.6 174 2.7 100730 71
2004-03-12 08:13:14 51°19.188 2°49.008 3.3 165 2.7 100740 70
2004-03-12 08:13:19 51°19.2 2°48.982 3.7 177 2.7 100740 70
2004-03-12 08:13:23 51°19.21 2°48.961 3.2 159 2.6 100730 70
2004-03-12 08:13:29 51°19.225 2°48.929 3.3 172 2.6 100730 69
2004-03-12 08:13:34 51°19.238 2°48.903 3.9 162 2.6 100730 69
2004-03-12 08:13:39 51°19.251 2°48.877 3.1 163 2.6 100730 69
2004-03-12 08:13:43 51°19.261 2°48.856 4.5 161 2.6 100730 69
2004-03-12 08:13:49 51°19.276 2°48.825 4.4 172 2.6 100730 69
2004-03-12 08:13:53 51°19.286 2°48.805 3.8 173 2.6 100730 70
2004-03-12 08:13:59 51°19.3 2°48.773 3.4 169 2.6 100730 70
2004-03-12 08:14:03 51°19.31 2°48.752 2.8 200 2.6 100730 70
2004-03-12 08:14:09 51°19.323 2°48.719 2 178 2.6 100730 70
2004-03-12 08:14:13 51°19.331 2°48.697 3.6 206 2.6 100730 70
2004-03-12 08:14:19 51°19.343 2°48.662 3.8 208 2.6 100730 70
2004-03-12 08:14:23 51°19.35 2°48.639 4.9 226 2.6 100730 70
2004-03-12 08:14:29 51°19.36 2°48.604 3.1 201 2.7 100730 70
2004-03-12 08:14:33 51°19.368 2°48.581 4.5 220 2.7 100730 70
2004-03-12 08:14:39 51°19.378 2°48.545 4.1 224 2.7 100730 70
2004-03-12 08:14:43 51°19.385 2°48.522 4.6 216 2.7 100720 71
2004-03-12 08:14:49 51°19.394 2°48.485 4.5 224 2.7 100720 71
2004-03-12 08:14:54 51°19.403 2°48.456 4.5 225 2.7 100720 70
2004-03-12 08:14:59 51°19.411 2°48.426 4.6 213 2.7 100720 70
2004-03-12 08:15:03 51°19.418 2°48.403 4.5 226 2.7 100730 70
2004-03-12 08:15:09 51°19.428 2°48.367 4.8 216 2.7 100730 70
2004-03-12 08:15:13 51°19.435 2°48.344 3.8 213 2.7 100730 70
2004-03-12 08:15:19 51°19.445 2°48.308 3.4 221 2.7 100730 70
2004-03-12 08:15:23 51°19.452 2°48.284 4.2 213 2.7 100730 70
2004-03-12 08:15:29 51°19.462 2°48.248 3.8 217 2.7 100730 70
2004-03-12 08:15:33 51°19.469 2°48.224 3.4 231 2.7 100730 70
2004-03-12 08:15:39 51°19.479 2°48.188 2.6 226 2.7 100730 70
2004-03-12 08:15:43 51°19.486 2°48.165 3 231 2.7 100730 70
2004-03-12 08:15:49 51°19.496 2°48.129 4.2 226 2.7 100730 70
2004-03-12 08:15:53 51°19.503 2°48.106 3.7 220 2.7 100730 71
2004-03-12 08:15:59 51°19.514 2°48.07 3.3 217 2.7 100730 71
2004-03-12 08:16:03 51°19.521 2°48.046 3.4 217 2.7 100730 71
2004-03-12 08:16:09 51°19.531 2°48.011 3.5 225 2.7 100730 71
2004-03-12 08:16:13 51°19.538 2°47.987 3.2 202 2.7 100730 71
2004-03-12 08:16:19 51°19.548 2°47.952 4.1 211 2.7 100730 71
2004-03-12 08:16:23 51°19.555 2°47.928 4 200 2.8 100730 71
2004-03-12 08:16:29 51°19.566 2°47.892 3.3 219 2.8 100730 71
2004-03-12 08:16:33 51°19.573 2°47.867 4.1 231 2.7 100730 71
2004-03-12 08:16:39 51°19.584 2°47.831 3.9 228 2.7 100730 71
2004-03-12 08:16:43 51°19.59 2°47.807 2.6 196 2.8 100730 71
2004-03-12 08:16:49 51°19.602 2°47.772 1.8 210 2.7 100730 70
2004-03-12 08:16:54 51°19.611 2°47.742 2.9 225 2.7 100730 70
2004-03-12 08:16:59 51°19.62 2°47.712 2.7 221 2.7 100730 70
2004-03-12 08:17:03 51°19.628 2°47.689 3.4 231 2.7 100730 70
2004-03-12 08:17:09 51°19.639 2°47.653 3.9 226 2.8 100730 71
2004-03-12 08:17:13 51°19.646 2°47.629 3.8 228 2.8 100730 71
2004-03-12 08:17:19 51°19.656 2°47.593 4.6 227 2.8 100740 71
2004-03-12 08:17:23 51°19.663 2°47.57 3.8 234 2.8 100740 71
2004-03-12 08:17:29 51°19.674 2°47.535 2.7 262 2.8 100730 71
2004-03-12 08:17:34 51°19.683 2°47.505 1.8 278 2.8 100730 71
2004-03-12 08:17:39 51°19.692 2°47.476 3.8 234 2.8 100730 71
2004-03-12 08:17:43 51°19.699 2°47.452 3.8 242 2.8 100740 71
2004-03-12 08:17:49 51°19.71 2°47.417 4.2 234 2.8 100770 72
2004-03-12 08:17:53 51°19.718 2°47.394 6.5 239 2.8 100770 72
2004-03-12 08:17:59 51°19.728 2°47.358 3.8 248 2.8 100740 72
2004-03-12 08:18:03 51°19.736 2°47.335 4.9 224 2.8 100740 72
2004-03-12 08:18:09 51°19.746 2°47.3 4.6 234 2.8 100740 72
2004-03-12 08:18:13 51°19.754 2°47.277 2.9 234 2.8 100740 72
2004-03-12 08:18:19 51°19.764 2°47.242 3 241 2.8 100730 71
2004-03-12 08:18:24 51°19.773 2°47.213 4.9 222 2.8 100730 71
2004-03-12 08:18:29 51°19.782 2°47.184 5.9 230 2.8 100730 70
2004-03-12 08:18:33 51°19.79 2°47.161 5.5 227 2.8 100730 70
2004-03-12 08:18:39 51°19.8 2°47.125 4.5 244 2.8 100730 70
2004-03-12 08:18:43 51°19.806 2°47.101 6.6 240 2.8 100740 71
2004-03-12 08:18:49 51°19.815 2°47.065 6.5 231 2.8 100740 71
2004-03-12 08:18:54 51°19.823 2°47.035 6.5 236 2.8 100740 71
2004-03-12 08:18:59 51°19.83 2°47.005 5.8 233 2.8 100740 71
2004-03-12 08:19:04 51°19.836 2°46.974 6 237 2.8 100740 71
2004-03-12 08:19:09 51°19.843 2°46.944 5.5 232 2.8 100740 71
2004-03-12 08:19:13 51°19.849 2°46.92 3.4 250 2.8 100740 71
2004-03-12 08:19:19 51°19.857 2°46.884 4.5 236 2.8 100740 71
2004-03-12 08:19:23 51°19.862 2°46.86 5.6 236 2.8 100740 71
2004-03-12 08:19:29 51°19.87 2°46.824 5.8 230 2.8 100790 71
2004-03-12 08:19:34 51°19.876 2°46.794 5.6 234 2.8 100790 71
2004-03-12 08:19:39 51°19.883 2°46.763 4.1 248 2.8 100740 71
2004-03-12 08:19:43 51°19.889 2°46.739 5 239 2.8 100740 71
2004-03-12 08:19:49 51°19.897 2°46.703 5.1 236 2.8 100740 71
2004-03-12 08:19:54 51°19.904 2°46.672 3.4 248 2.8 100740 71
2004-03-12 08:19:59 51°19.911 2°46.642 3.8 267 2.8 100740 71
2004-03-12 08:20:03 51°19.917 2°46.618 6.1 246 2.8 100750 71
2004-03-12 08:20:09 51°19.925 2°46.581 4.6 253 2.8 100740 71
2004-03-12 08:20:13 51°19.931 2°46.557 4.2 237 2.8 100740 71
2004-03-12 08:20:18 51°19.938 2°46.527 5.7 264 2.8 100740 71
2004-03-12 08:20:23 51°19.944 2°46.496 5.2 248 2.8 100750 71
2004-03-12 08:20:29 51°19.95 2°46.458 5.6 252 2.8 100750 71
2004-03-12 08:20:33 51°19.954 2°46.433 5.3 253 2.8 100740 71
2004-03-12 08:20:39 51°19.959 2°46.395 6.1 250 2.8 100740 71
2004-03-12 08:20:43 51°19.962 2°46.37 6.2 251 2.8 100750 71
2004-03-12 08:20:49 51°19.966 2°46.331 5.4 249 2.8 100740 71
2004-03-12 08:20:53 51°19.97 2°46.306 4.7 252 2.8 100740 71
2004-03-12 08:20:59 51°19.974 2°46.267 5.5 249 2.8 100740 71
2004-03-12 08:21:03 51°19.977 2°46.242 6 247 2.8 100740 70
2004-03-12 08:21:09 51°19.982 2°46.203 4.4 254 2.7 100740 69
2004-03-12 08:21:14 51°19.986 2°46.172 6.2 257 2.7 100740 69
2004-03-12 08:21:19 51°19.989 2°46.139 6.6 267 2.7 100740 69
2004-03-12 08:21:23 51°19.99 2°46.113 8 268 2.7 100750 70
2004-03-12 08:21:29 51°19.991 2°46.074 7.9 267 2.8 100760 70
2004-03-12 08:21:33 51°19.991 2°46.048 9.8 264 2.8 100760 70
2004-03-12 08:21:39 51°19.988 2°46.009 11.4 283 2.8 100760 70
2004-03-12 08:21:43 51°19.987 2°45.983 11.4 283 2.8 100750 71
2004-03-12 08:21:49 51°19.982 2°45.944 10 280 2.8 100750 72
2004-03-12 08:21:54 51°19.977 2°45.913 10.4 282 2.8 100750 72
2004-03-12 08:21:59 51°19.971 2°45.882 11.9 293 2.8 100740 72
2004-03-12 08:22:03 51°19.965 2°45.859 13.2 294 2.8 100740 72
2004-03-12 08:22:09 51°19.955 2°45.823 12.4 296 2.8 100740 72
2004-03-12 08:22:13 51°19.948 2°45.8 12.1 298 2.8 100740 72
2004-03-12 08:22:19 51°19.935 2°45.766 12.8 306 2.8 100730 72
2004-03-12 08:22:23 51°19.928 2°45.743 12.1 287 2.8 100730 72
2004-03-12 08:22:29 51°19.915 2°45.71 12.6 294 2.8 100730 72
2004-03-12 08:22:33 51°19.908 2°45.688 12.5 300 2.8 100730 72
2004-03-12 08:22:38 51°19.898 2°45.66 14 298 2.8 100730 72
2004-03-12 08:22:43 51°19.888 2°45.632 13.6 302 2.8 100730 72
2004-03-12 08:22:49 51°19.877 2°45.598 13.1 299 2.8 100730 71
2004-03-12 08:22:54 51°19.867 2°45.57 13.7 292 2.8 100730 71
2004-03-12 08:22:59 51°19.857 2°45.542 14.3 291 2.8 100740 72
2004-03-12 08:23:03 51°19.849 2°45.519 12.3 305 2.8 100740 72
2004-03-12 08:23:09 51°19.837 2°45.486 14.4 302 2.9 100730 72
2004-03-12 08:23:13 51°19.83 2°45.462 12.6 299 2.9 100730 72
2004-03-12 08:23:19 51°19.818 2°45.428 11.8 303 2.9 100720 71
2004-03-12 08:23:23 51°19.809 2°45.405 12.2 300 2.9 100720 71
2004-03-12 08:23:29 51°19.798 2°45.371 13.5 302 2.9 100730 72
2004-03-12 08:23:33 51°19.789 2°45.348 12.7 296 2.9 100730 72
2004-03-12 08:23:39 51°19.778 2°45.313 12.1 299 2.9 100720 72
2004-03-12 08:23:43 51°19.77 2°45.291 12.2 295 2.9 100720 72
2004-03-12 08:23:49 51°19.758 2°45.256 11.9 302 2.9 100720 72
2004-03-12 08:23:53 51°19.751 2°45.233 12 299 2.9 100740 72
2004-03-12 08:23:59 51°19.739 2°45.199 14.1 307 2.9 100740 72
2004-03-12 08:24:03 51°19.731 2°45.176 14.5 289 2.9 100740 72
2004-03-12 08:24:09 51°19.72 2°45.141 13.7 292 2.9 100730 71
2004-03-12 08:24:13 51°19.712 2°45.118 11.5 289 2.9 100730 71
2004-03-12 08:24:19 51°19.701 2°45.083 12.7 295 2.9 100730 71
2004-03-12 08:24:23 51°19.694 2°45.06 11.9 301 2.9 100740 71
2004-03-12 08:24:29 51°19.683 2°45.024 11.4 300 2.9 100740 71
2004-03-12 08:24:34 51°19.674 2°44.995 11.9 301 2.9 100740 71
2004-03-12 08:24:39 51°19.665 2°44.966 13.9 300 2.9 100740 71
2004-03-12 08:24:44 51°19.656 2°44.937 13.1 298 2.9 100740 72
2004-03-12 08:24:49 51°19.647 2°44.907 12.5 295 2.9 100740 72
2004-03-12 08:24:54 51°19.638 2°44.877 12.3 297 2.9 100740 72
2004-03-12 08:24:59 51°19.628 2°44.848 13.5 299 2.9 100740 72
2004-03-12 08:25:03 51°19.62 2°44.825 12.8 301 2.9 100750 72
2004-03-12 08:25:09 51°19.609 2°44.79 12.7 298 2.9 100750 72
2004-03-12 08:25:13 51°19.602 2°44.767 12.4 300 2.9 100740 71
2004-03-12 08:25:19 51°19.59 2°44.732 13.9 289 2.9 100740 71
2004-03-12 08:25:23 51°19.583 2°44.708 14.1 295 2.9 100750 71
2004-03-12 08:25:29 51°19.572 2°44.673 13 299 2.9 100750 72
2004-03-12 08:25:34 51°19.563 2°44.644 13.4 302 2.9 100750 72
2004-03-12 08:25:39 51°19.554 2°44.615 10.3 307 2.9 100750 72
2004-03-12 08:25:43 51°19.547 2°44.591 11.4 300 2.9 100750 72
2004-03-12 08:25:49 51°19.536 2°44.556 12.1 298 2.9 100750 71
2004-03-12 08:25:54 51°19.528 2°44.527 13.2 291 2.9 100750 71
2004-03-12 08:25:59 51°19.519 2°44.498 12.9 298 2.9 100750 71
2004-03-12 08:26:03 51°19.512 2°44.475 12.8 299 2.9 100750 71
2004-03-12 08:26:09 51°19.501 2°44.44 11.2 306 2.9 100750 71
2004-03-12 08:26:13 51°19.495 2°44.416 11.7 291 2.9 100760 71
2004-03-12 08:26:19 51°19.484 2°44.381 11.4 304 2.9 100750 71
2004-03-12 08:26:24 51°19.475 2°44.352 12 303 2.9 100750 71
2004-03-12 08:26:29 51°19.467 2°44.322 11.6 299 2.9 100750 71
2004-03-12 08:26:34 51°19.458 2°44.294 13.3   2.9 100750 71
2004-03-12 08:26:39 51°19.45 2°44.263 12.4 304 2.9 100760 72
2004-03-12 08:26:43 51°19.442 2°44.24 12.6 298 2.9 100760 72
2004-03-12 08:26:49 51°19.432 2°44.205 13.8 305 2.9 100760 72
2004-03-12 08:26:53 51°19.425 2°44.181 12.8 297 3 100800 72
2004-03-12 08:26:59 51°19.414 2°44.147 15.2 302 3 100800 72
2004-03-12 08:27:03 51°19.407 2°44.123 15.2 301 3 100780 72
2004-03-12 08:27:09 51°19.396 2°44.088 15.2 301 3 100770 72
2004-03-12 08:27:13 51°19.39 2°44.064 13.5 298 3 100770 72
2004-03-12 08:27:19 51°19.379 2°44.029 12.9 303 3 100770 72
2004-03-12 08:27:23 51°19.372 2°44.005 14.2 298 3 100760 72
2004-03-12 08:27:29 51°19.361 2°43.969 14 305 3 100760 72
2004-03-12 08:27:34 51°19.352 2°43.94 13.9 296 3 100750 71
2004-03-12 08:27:39 51°19.343 2°43.911 14 298 3 100750 71
2004-03-12 08:27:43 51°19.336 2°43.887 13.3 307 3 100760 71
2004-03-12 08:27:49 51°19.324 2°43.852 14.1 309 3 100750 71
2004-03-12 08:27:53 51°19.317 2°43.829 13.3 313 3 100750 71
2004-03-12 08:27:59 51°19.305 2°43.794 13 309 3 100750 71
2004-03-12 08:28:03 51°19.298 2°43.771 14.8 298 3 100810 71
2004-03-12 08:28:09 51°19.286 2°43.736 14.3 301 3 100810 71
2004-03-12 08:28:13 51°19.279 2°43.713 13.9 298 3 100760 71
2004-03-12 08:28:19 51°19.267 2°43.679 14.5 298 3 100760 71
2004-03-12 08:28:24 51°19.258 2°43.651 13.5 293 3 100760 71
2004-03-12 08:28:29 51°19.25 2°43.621 13.7 291 3 100760 71
2004-03-12 08:28:34 51°19.241 2°43.593 11.7 296 3 100750 71
2004-03-12 08:28:39 51°19.233 2°43.563 15.3 302 3 100750 71
2004-03-12 08:28:43 51°19.226 2°43.539 14 294 3 100750 71
2004-03-12 08:28:49 51°19.216 2°43.504 13.1 300 3 100760 70
2004-03-12 08:28:54 51°19.208 2°43.475 14 302 3 100760 70
2004-03-12 08:28:59 51°19.2 2°43.445 14.2 297 3 100760 70
2004-03-12 08:29:03 51°19.194 2°43.421 13.6 303 3 100760 71
2004-03-12 08:29:09 51°19.184 2°43.386 13.9 297 3 100760 71
2004-03-12 08:29:13 51°19.177 2°43.362 12.1 307 3 100760 71
2004-03-12 08:29:19 51°19.166 2°43.329 14 313 3 100760 71
2004-03-12 08:29:23 51°19.158 2°43.307 14 310 3 100760 71
2004-03-12 08:29:29 51°19.145 2°43.275 12 314 3 100760 70
2004-03-12 08:29:33 51°19.136 2°43.254 13.7 308 3 100760 70
2004-03-12 08:29:39 51°19.122 2°43.224 13.2 302 3 100760 70
2004-03-12 08:29:43 51°19.113 2°43.203 15.4 307 3 100760 71
2004-03-12 08:29:49 51°19.098 2°43.174 14.9 309 3 100770 72
2004-03-12 08:29:54 51°19.086 2°43.149 13.9 307 3 100770 72
2004-03-12 08:29:59 51°19.074 2°43.123 15.9 311 3 100770 72
2004-03-12 08:30:03 51°19.064 2°43.104 16 306 3 100760 71
2004-03-12 08:30:09 51°19.049 2°43.074 14 305 3 100760 71
2004-03-12 08:30:14 51°19.037 2°43.05 15.6 307 3 100760 71
2004-03-12 08:30:19 51°19.025 2°43.025 15.1 303 3 100760 71
2004-03-12 08:30:23 51°19.015 2°43.005 13.3 233 3 100760 71
2004-03-12 08:30:29 51°19 2°42.975 15.1 308 3 100760 71
2004-03-12 08:30:34 51°18.988 2°42.95 14.6 310 3 100760 71
2004-03-12 08:30:39 51°18.976 2°42.925 14.9 308 3 100760 71
2004-03-12 08:30:43 51°18.967 2°42.905 15.3 303 3 100760 71
2004-03-12 08:30:49 51°18.952 2°42.874 13.3 309 3 100760 71
2004-03-12 08:30:54 51°18.94 2°42.849 13 313 3 100760 71
2004-03-12 08:30:59 51°18.928 2°42.823 15.8 313 3 100760 71
2004-03-12 08:31:03 51°18.919 2°42.803 15 230 3 100760 71
2004-03-12 08:31:09 51°18.904 2°42.772 15.4 310 3 100750 71
2004-03-12 08:31:13 51°18.895 2°42.752 15.8 307 3 100750 71
2004-03-12 08:31:19 51°18.881 2°42.721 14.9 302 3 100800 71
2004-03-12 08:31:23 51°18.872 2°42.7 14.6 310 3 100800 71
2004-03-12 08:31:29 51°18.858 2°42.668 15.2 300 3 100800 71
2004-03-12 08:31:34 51°18.847 2°42.641 13.8 301 3 100790 71
2004-03-12 08:31:39 51°18.835 2°42.614 12.1 300 3 100790 70
2004-03-12 08:31:43 51°18.828 2°42.592 14.1 293 3 100790 70
2004-03-12 08:31:49 51°18.815 2°42.559 10.9 306 3 100800 71
2004-03-12 08:31:53 51°18.807 2°42.537 12.7 305 3 100800 71
2004-03-12 08:31:59 51°18.795 2°42.504 13.1 303 3 100800 71
2004-03-12 08:32:03 51°18.787 2°42.482 13.4 307 3 100750 71
2004-03-12 08:32:09 51°18.774 2°42.449 13.5 301 3 100750 71
2004-03-12 08:32:14 51°18.764 2°42.422 12.9 309 3 100800 72
2004-03-12 08:32:19 51°18.755 2°42.394 12.7 305 3 100800 71
2004-03-12 08:32:23 51°18.747 2°42.371 14 308 3 100800 71
2004-03-12 08:32:29 51°18.735 2°42.338 15.4 307 3 100810 71
2004-03-12 08:32:33 51°18.727 2°42.317 15.5 302 3 100810 71
2004-03-12 08:32:39 51°18.715 2°42.284 14.2 301 3 100800 71
2004-03-12 08:32:43 51°18.706 2°42.262 15.2 299 3 100800 71
2004-03-12 08:32:49 51°18.693 2°42.23 14.4 303 3 100790 71
2004-03-12 08:32:54 51°18.682 2°42.203 13.6 232 3 100790 71
2004-03-12 08:32:59 51°18.672 2°42.176 14.6 312 3 100780 71
2004-03-12 08:33:03 51°18.663 2°42.155 14.8 308 3 100780 71
2004-03-12 08:33:09 51°18.651 2°42.122 13.6 303 3 100780 71
2004-03-12 08:33:13 51°18.643 2°42.1 13.2 295 3 100780 71
2004-03-12 08:33:19 51°18.631 2°42.067 14.8 301 3 100780 71
2004-03-12 08:33:23 51°18.623 2°42.045 15.7 301 3 100800 71
2004-03-12 08:33:29 51°18.611 2°42.013 15.5 298 3 100790 71
2004-03-12 08:33:34 51°18.6 2°41.986 12.8 297 3 100790 71
2004-03-12 08:33:39 51°18.589 2°41.959 13.7 307 3 100790 71
2004-03-12 08:33:43 51°18.581 2°41.938 14.9 304 3 100790 71
2004-03-12 08:33:49 51°18.568 2°41.905 14.6 300 3 100790 71
2004-03-12 08:33:54 51°18.558 2°41.877 14 307 3 100790 71
2004-03-12 08:33:59 51°18.548 2°41.85 14.2 307 3 100790 71
2004-03-12 08:34:03 51°18.539 2°41.828 13.5 308 3 100790 71
2004-03-12 08:34:09 51°18.527 2°41.795 13.9 306 3 100790 71
2004-03-12 08:34:13 51°18.518 2°41.773 14.3 312 3 100790 71
2004-03-12 08:34:19 51°18.505 2°41.74 15 310 3 100790 71
2004-03-12 08:34:23 51°18.497 2°41.718 14.1 310 3 100790 71
2004-03-12 08:34:29 51°18.484 2°41.685 13.9 302 3 100790 71
2004-03-12 08:34:34 51°18.473 2°41.658 14 306 3 100790 71
2004-03-12 08:34:39 51°18.463 2°41.629 16.1 306 3 100780 71
2004-03-12 08:34:43 51°18.455 2°41.608 14.4 301 3 100780 71
2004-03-12 08:34:49 51°18.444 2°41.574 15.1 308 3 100780 71
2004-03-12 08:34:53 51°18.435 2°41.552 15.9 305 3 100790 71
2004-03-12 08:34:59 51°18.423 2°41.519 14.9 300 3 100790 71
2004-03-12 08:35:03 51°18.414 2°41.496 14.2 304 3 100780 71
2004-03-12 08:35:09 51°18.402 2°41.463 14.9 305 3 100780 70
2004-03-12 08:35:13 51°18.393 2°41.441 14.4 305 3 100780 70
2004-03-12 08:35:19 51°18.381 2°41.408 15.3 306 3 100780 71
2004-03-12 08:35:25 51°18.368 2°41.375 13.8 303 3 100780 71
2004-03-12 08:35:29 51°18.36 2°41.353 15 298 3 100780 71
2004-03-12 08:35:33 51°18.351 2°41.331 12.9   3 100790 71
2004-03-12 08:35:39 51°18.339 2°41.297 13.3 309 2.9 100790 71
2004-03-12 08:35:43 51°18.331 2°41.275 13.2 309 2.9 100790 71
2004-03-12 08:35:49 51°18.319 2°41.241 12.4 306 2.9 100790 71
2004-03-12 08:35:54 51°18.309 2°41.213 14 304 2.9 100790 71
2004-03-12 08:35:59 51°18.298 2°41.186 12.2 310 2.9 100790 71
2004-03-12 08:36:03 51°18.29 2°41.163 13 308 2.9 100790 71
2004-03-12 08:36:09 51°18.278 2°41.129 13.9 307 2.9 100790 71
2004-03-12 08:36:14 51°18.267 2°41.101 13.8 299 2.9 100790 71
2004-03-12 08:36:19 51°18.258 2°41.073 15.5 295 2.9 100790 72
2004-03-12 08:36:24 51°18.247 2°41.045 14.5 298 2.9 100790 72
2004-03-12 08:36:29 51°18.237 2°41.018 14.6 293 2.9 100800 72
2004-03-12 08:36:34 51°18.226 2°40.99 13.7 302 2.9 100800 72
2004-03-12 08:36:39 51°18.216 2°40.962 13.8 299 2.9 100800 72
2004-03-12 08:36:43 51°18.207 2°40.94 13.8 302 3 100790 71
2004-03-12 08:36:49 51°18.195 2°40.907 13.2 301 3 100780 71
2004-03-12 08:36:54 51°18.185 2°40.878 12.3 304 3 100780 71
2004-03-12 08:36:59 51°18.175 2°40.851 12.7 302 3 100780 71
2004-03-12 08:37:03 51°18.167 2°40.828 13.3 305 2.9 100790 71
2004-03-12 08:37:09 51°18.155 2°40.794 12.6 304 3 100790 71
2004-03-12 08:37:13 51°18.147 2°40.772 13.8 302 3 100790 71
2004-03-12 08:37:19 51°18.134 2°40.738 13.3 302 3 100790 71
2004-03-12 08:37:24 51°18.123 2°40.71 11.5 307 3 100790 72
2004-03-12 08:37:29 51°18.114 2°40.681 13 309 2.9 100790 71
2004-03-12 08:37:33 51°18.106 2°40.66 14.2 306 2.9 100790 71
2004-03-12 08:37:39 51°18.094 2°40.626 13.9 301 2.9 100780 71
2004-03-12 08:37:43 51°18.086 2°40.603 13.1 300 2.9 100780 71
2004-03-12 08:37:49 51°18.074 2°40.57 15.1 298 2.9 100790 71
2004-03-12 08:37:53 51°18.066 2°40.547 12.5 292 2.9 100790 71
2004-03-12 08:37:59 51°18.053 2°40.514 12.8 297 2.9 100790 71
2004-03-12 08:38:03 51°18.045 2°40.491 11.6 299 2.9 100790 71
2004-03-12 08:38:09 51°18.032 2°40.458 12.1 309 2.9 100780 71
2004-03-12 08:38:14 51°18.021 2°40.43 11.5 306 2.9 100780 71
2004-03-12 08:38:19 51°18.011 2°40.402 12 313 2.9 100780 71
2004-03-12 08:38:23 51°18.002 2°40.38 12.5 309 2.9 100780 70
2004-03-12 08:38:29 51°17.989 2°40.346 13 306 2.9 100780 70
2004-03-12 08:38:34 51°17.979 2°40.318 13.9 307 2.9 100790 71
2004-03-12 08:38:39 51°17.969 2°40.29 13.4 306 3 100790 71
2004-03-12 08:38:43 51°17.96 2°40.267 12.4 305 3 100790 71
2004-03-12 08:38:49 51°17.947 2°40.233 11.8 306 3 100790 72
2004-03-12 08:38:54 51°17.937 2°40.205 12.4 308 3 100790 72
2004-03-12 08:38:59 51°17.927 2°40.176 12.1 307 3 100790 72
2004-03-12 08:39:03 51°17.918 2°40.153 12.9 309 3 100780 72
2004-03-12 08:39:09 51°17.907 2°40.121 11.9 306 3 100780 71
2004-03-12 08:39:14 51°17.898 2°40.096 12.5 301 3 100780 71
2004-03-12 08:39:19 51°17.889 2°40.073 12.8 294 3 100790 71
2004-03-12 08:39:24 51°17.881 2°40.052 10.9 298 3 100790 71
2004-03-12 08:39:29 51°17.873 2°40.032 11.9 295 3 100790 71
2004-03-12 08:39:33 51°17.867 2°40.018 12.6 294 3 100790 71
2004-03-12 08:39:39 51°17.858 2°39.997 10 299 3 100790 71
2004-03-12 08:39:43 51°17.852 2°39.985 12.4 297 2.9 100790 71
2004-03-12 08:39:49 51°17.843 2°39.967 10.2 291 2.9 100790 71
2004-03-12 08:39:53 51°17.838 2°39.955 10.3 299 2.9 100790 71
2004-03-12 08:39:59 51°17.829 2°39.939 10.5 298 2.9 100790 71
2004-03-12 08:40:03 51°17.825 2°39.929 11.4 301 2.9 100790 71
2004-03-12 08:40:09 51°17.817 2°39.915 12.8 300 2.9 100790 71
2004-03-12 08:40:13 51°17.813 2°39.905 11.8 300 2.9 100790 71
2004-03-12 08:40:19 51°17.806 2°39.893 13.8 303 2.9 100800 71
2004-03-12 08:40:23 51°17.802 2°39.885 12.6 300 2.9 100800 71
2004-03-12 08:40:29 51°17.795 2°39.874 12.1 301 2.9 100790 71
2004-03-12 08:40:34 51°17.791 2°39.866 12.4 302 2.9 100790 71
2004-03-12 08:40:39 51°17.787 2°39.859 12.3 297 2.9 100790 71
2004-03-12 08:40:43 51°17.784 2°39.854 11.7 300 2.9 100790 71
2004-03-12 08:40:49 51°17.781 2°39.848 10.8 303 2.9 100790 71
2004-03-12 08:40:54 51°17.778 2°39.843 10.2 312 2.9 100790 71
2004-03-12 08:40:59 51°17.776 2°39.838 10.5 313 2.9 100790 70
2004-03-12 08:41:03 51°17.774 2°39.835 11.9 229 2.9 100790 70
2004-03-12 08:41:09 51°17.773 2°39.83 11.3 317 2.9 100790 70
2004-03-12 08:41:13 51°17.772 2°39.827 11 226 2.9 100790 70
2004-03-12 08:41:19 51°17.771 2°39.822 11 317 2.9 100790 70
2004-03-12 08:41:23 51°17.77 2°39.819 10.9 316 2.9 100800 70
2004-03-12 08:41:29 51°17.769 2°39.815 10.5 229 2.9 100800 70
2004-03-12 08:41:33 51°17.768 2°39.812 9.8 320 2.9 100800 70
2004-03-12 08:41:38 51°17.767 2°39.808 10.5 320 2.9 100810 70
2004-03-12 08:41:43 51°17.766 2°39.804 9.7 315 2.9 100810 70
2004-03-12 08:41:49 51°17.766 2°39.8 10.1 318 2.9 100790 70
2004-03-12 08:41:54 51°17.765 2°39.796 11.4 227 2.9 100790 70
2004-03-12 08:41:59 51°17.764 2°39.793 10 43 2.9 100800 70
2004-03-12 08:42:04 51°17.763 2°39.789 10.1 227 2.9 100800 70
2004-03-12 08:42:09 51°17.762 2°39.786 9 317 2.9 100790 71
2004-03-12 08:42:14 51°17.762 2°39.782 9.1 319 2.9 100790 71
2004-03-12 08:42:19 51°17.761 2°39.779 9.4 314 2.9 100800 71
2004-03-12 08:42:23 51°17.76 2°39.776 9.3 317 2.9 100800 71
2004-03-12 08:42:29 51°17.76 2°39.771 8.3 42 2.9 100790 70
2004-03-12 08:42:34 51°17.759 2°39.768 9.6 320 2.9 100790 70
2004-03-12 08:42:39 51°17.758 2°39.764 10.1 315 2.9 100800 70
2004-03-12 08:42:44 51°17.758 2°39.761 9.7 315 2.9 100800 70
2004-03-12 08:42:49 51°17.757 2°39.757 8.7 310 2.9 100790 70
2004-03-12 08:42:54 51°17.757 2°39.754 9.1 314 2.9 100790 70
2004-03-12 08:42:59 51°17.756 2°39.75 9.2 313 2.9 100800 71
2004-03-12 08:43:03 51°17.756 2°39.747 8.9 229 2.9 100800 71
2004-03-12 08:43:09 51°17.755 2°39.743 10.2 308 2.9 100800 71
2004-03-12 08:43:13 51°17.755 2°39.74 10.7 310 2.9 100800 71
2004-03-12 08:43:19 51°17.754 2°39.735 9.6 309 2.9 100800 71
2004-03-12 08:43:24 51°17.754 2°39.732 11 309 2.9 100800 71
2004-03-12 08:43:29 51°17.753 2°39.728 9.9 306 2.9 100790 71
2004-03-12 08:43:34 51°17.753 2°39.724 10.3 306 2.9 100790 71
2004-03-12 08:43:39 51°17.753 2°39.721 10.1 310 2.9 100790 71
2004-03-12 08:43:44 51°17.752 2°39.717 10.8 307 2.9 100790 71
2004-03-12 08:43:49 51°17.752 2°39.713 11.5 310 2.9 100790 71
2004-03-12 08:43:54 51°17.751 2°39.709 10.3 313 2.9 100790 71
2004-03-12 08:43:59 51°17.751 2°39.705 11.3 306 2.9 100790 71
2004-03-12 08:44:03 51°17.751 2°39.702 11.9 309 2.9 100790 71
2004-03-12 08:44:09 51°17.751 2°39.698 10.8 310 2.9 100790 71
2004-03-12 08:44:13 51°17.75 2°39.694 10.9 306 2.9 100790 71
2004-03-12 08:44:19 51°17.75 2°39.69 9.6 307 2.9 100790 71
2004-03-12 08:44:24 51°17.75 2°39.686 9.4 303 2.9 100790 71
2004-03-12 08:44:29 51°17.75 2°39.682 10.1 308 3 100790 71
2004-03-12 08:44:34 51°17.75 2°39.678 10.1 310 3 100790 71
2004-03-12 08:44:39 51°17.749 2°39.674 9.3 309 3 100790 71
2004-03-12 08:44:43 51°17.749 2°39.671 10.3 307 2.9 100790 71
2004-03-12 08:44:49 51°17.749 2°39.666 9.6 307 2.9 100790 71
2004-03-12 08:44:54 51°17.749 2°39.662 9.7 308 2.9 100790 70
2004-03-12 08:44:59 51°17.749 2°39.658 10.6 307 2.9 100790 70
2004-03-12 08:45:03 51°17.749 2°39.655 10 307 2.9 100800 70
2004-03-12 08:45:09 51°17.749 2°39.65 10.7 306 2.9 100790 69
2004-03-12 08:45:13 51°17.749 2°39.647 9.5 307 2.9 100790 69
2004-03-12 08:45:19 51°17.749 2°39.642 9.1 297 2.9 100810 69
2004-03-12 08:45:23 51°17.749 2°39.639 9.4 300 2.9 100810 69
2004-03-12 08:45:29 51°17.749 2°39.635 8.4 296 2.9 100790 70
2004-03-12 08:45:33 51°17.749 2°39.631 10.2 302 2.9 100790 70
2004-03-12 08:45:39 51°17.749 2°39.627 9.3 301 2.9 100790 70
2004-03-12 08:45:43 51°17.749 2°39.623 9.7 297 2.9 100790 70
2004-03-12 08:45:49 51°17.749 2°39.618 10.2 295 2.9 100790 71
2004-03-12 08:45:53 51°17.749 2°39.615 9.8 296 2.9 100790 71
2004-03-12 08:45:59 51°17.749 2°39.611 10.1 296 2.9 100800 71
2004-03-12 08:46:03 51°17.75 2°39.607 9.5 288 2.9 100800 71
2004-03-12 08:46:09 51°17.75 2°39.602 10.9 289 2.9 100800 71
2004-03-12 08:46:13 51°17.75 2°39.599 11.2 285 2.9 100790 71
2004-03-12 08:46:19 51°17.75 2°39.594 11.5 284 2.9 100790 71
2004-03-12 08:46:23 51°17.75 2°39.59 10.5 285 2.9 100790 71
2004-03-12 08:46:29 51°17.75 2°39.585 4.4 287 3 100790 72
2004-03-12 08:46:34 51°17.75 2°39.581 9.1 290 3 100790 72
2004-03-12 08:46:39 51°17.75 2°39.577 9.2 287 3 100790 72
2004-03-12 08:46:44 51°17.751 2°39.573 9.7 286 3 100790 72
2004-03-12 08:46:49 51°17.751 2°39.568 11 293 2.9 100790 71
2004-03-12 08:46:54 51°17.751 2°39.564 10.6 290 2.9 100790 71
2004-03-12 08:46:59 51°17.751 2°39.56 11.1 290 2.9 100790 71
2004-03-12 08:47:03 51°17.751 2°39.557 8.8 288 2.9 100800 71
2004-03-12 08:47:09 51°17.751 2°39.552 9.6 280 2.9 100790 71
2004-03-12 08:47:14 51°17.751 2°39.547 8.3 285 2.9 100790 71
2004-03-12 08:47:19 51°17.751 2°39.543 8.2 289 2.9 100790 71
2004-03-12 08:47:24 51°17.752 2°39.539 8.5 281 2.9 100790 71
2004-03-12 08:47:29 51°17.752 2°39.535 8.6 279 3 100800 71
2004-03-12 08:47:33 51°17.752 2°39.531 8.9 284 3 100800 71
2004-03-12 08:47:39 51°17.752 2°39.526 9.4 281 3 100800 71
2004-03-12 08:47:43 51°17.752 2°39.523 8.6 282 3 100790 71
2004-03-12 08:47:49 51°17.752 2°39.518 9.8 282 3 100800 72
2004-03-12 08:47:54 51°17.752 2°39.514 9.1 283 3 100800 72
2004-03-12 08:47:59 51°17.752 2°39.51 9.8 290 3 100800 72
2004-03-12 08:48:04 51°17.752 2°39.506 9.9 288 3 100800 72
2004-03-12 08:48:09 51°17.752 2°39.502 9.2 286 3 100800 72
2004-03-12 08:48:13 51°17.753 2°39.498 9.4 284 3 100800 72
2004-03-12 08:48:19 51°17.753 2°39.494 10.9 286 3 100790 72
2004-03-12 08:48:23 51°17.753 2°39.49 10 283 3 100790 72
2004-03-12 08:48:29 51°17.753 2°39.486 9.3 285 3 100800 72
2004-03-12 08:48:33 51°17.753 2°39.482 8.5 284 3 100800 72
2004-03-12 08:48:39 51°17.753 2°39.477 8.8 286 3 100800 71
2004-03-12 08:48:43 51°17.753 2°39.474 8.9 282 3 100800 71
2004-03-12 08:48:49 51°17.753 2°39.469 9.1 278 3 100800 71
2004-03-12 08:48:54 51°17.753 2°39.465 9.2 275 3 100800 71
2004-03-12 08:48:59 51°17.752 2°39.461 10.7 278 3 100800 71
2004-03-12 08:49:03 51°17.752 2°39.458 10.2 281 3 100800 71
2004-03-12 08:49:09 51°17.752 2°39.453 10.7 282 3 100810 72
2004-03-12 08:49:13 51°17.752 2°39.45 9 279 3 100810 72
2004-03-12 08:49:19 51°17.752 2°39.445 8.2 280 3 100810 72
2004-03-12 08:49:23 51°17.752 2°39.442 9.4 290 3 100800 72
2004-03-12 08:49:29 51°17.752 2°39.437 8.6 290 3 100800 72
2004-03-12 08:49:33 51°17.752 2°39.434 9.7 287 3 100800 72
2004-03-12 08:49:39 51°17.752 2°39.429 9.1 291 3 100800 72
2004-03-12 08:49:43 51°17.752 2°39.426 9.9 292 3 100800 72
2004-03-12 08:49:49 51°17.751 2°39.421 9.2 291 3 100800 72
2004-03-12 08:49:53 51°17.751 2°39.418 10.8 288 3 100800 72
2004-03-12 08:49:59 51°17.751 2°39.413 9.5 300 3 100800 72
2004-03-12 08:50:03 51°17.751 2°39.41 8.8 293 3 100810 73
2004-03-12 08:50:09 51°17.751 2°39.405 8.8 296 3 100800 72
2004-03-12 08:50:13 51°17.751 2°39.402 10.2 291 3 100800 72
2004-03-12 08:50:19 51°17.751 2°39.397 10.4 289 3 100810 72
2004-03-12 08:50:23 51°17.751 2°39.394 11.1 285 3 100810 72
2004-03-12 08:50:29 51°17.751 2°39.389 10.1 295 3 100810 72
2004-03-12 08:50:33 51°17.751 2°39.386 8.8 291 3 100810 72
2004-03-12 08:50:39 51°17.751 2°39.381 9.6 290 3 100800 72
2004-03-12 08:50:44 51°17.75 2°39.377 9.3 291 3 100800 72
2004-03-12 08:50:49 51°17.75 2°39.373 10.4 295 3 100810 72
2004-03-12 08:50:54 51°17.75 2°39.369 9.8 291 3 100810 72
2004-03-12 08:50:59 51°17.75 2°39.365 9.4 292 3 100800 72
2004-03-12 08:51:03 51°17.75 2°39.362 9.6 291 3 100800 72
2004-03-12 08:51:09 51°17.75 2°39.357 10.4 299 3 100800 72
2004-03-12 08:51:14 51°17.75 2°39.353 9.1 294 3 100810 72
2004-03-12 08:51:19 51°17.749 2°39.349 9.6 296 3 100810 72
2004-03-12 08:51:23 51°17.749 2°39.346 10.1 296 3 100810 72
2004-03-12 08:51:29 51°17.749 2°39.341 9 297 3 100810 71
2004-03-12 08:51:33 51°17.749 2°39.338 10 296 3 100810 71
2004-03-12 08:51:39 51°17.749 2°39.333 8.9 297 3 100810 71
2004-03-12 08:51:43 51°17.749 2°39.33 9.7 297 3 100810 71
2004-03-12 08:51:49 51°17.748 2°39.325 10.1 298 3 100800 71
2004-03-12 08:51:54 51°17.748 2°39.321 10 303 3 100800 71
2004-03-12 08:51:59 51°17.748 2°39.317 9.6 304 3 100810 71
2004-03-12 08:52:03 51°17.747 2°39.314 9 298 3 100810 71
2004-03-12 08:52:09 51°17.747 2°39.309 9.7 302 3 100820 72
2004-03-12 08:52:13 51°17.747 2°39.306 9.6 300 3 100820 72
2004-03-12 08:52:19 51°17.746 2°39.301 8.1 300 3 100810 72
2004-03-12 08:52:23 51°17.746 2°39.298 9.1 304 3 100810 72
2004-03-12 08:52:29 51°17.745 2°39.293 9.5 305 3 100810 71
2004-03-12 08:52:33 51°17.745 2°39.29 8.9 310 3 100810 71
2004-03-12 08:52:39 51°17.745 2°39.286 8.6 319 3 100810 71
2004-03-12 08:52:43 51°17.744 2°39.282 8.8 315 3 100810 71
2004-03-12 08:52:49 51°17.743 2°39.278 8.1 303 3 100810 71
2004-03-12 08:52:53 51°17.743 2°39.275 6.7 313 3 100810 72
2004-03-12 08:52:59 51°17.742 2°39.27 8.3 311 3 100810 72
2004-03-12 08:53:03 51°17.742 2°39.267 10 316 3.1 100810 72
2004-03-12 08:53:09 51°17.741 2°39.263 9.8 314 3.1 100820 72
2004-03-12 08:53:14 51°17.741 2°39.259 9.9 233 3.1 100820 72
2004-03-12 08:53:19 51°17.74 2°39.255 9.4 315 3.1 100810 73
2004-03-12 08:53:23 51°17.74 2°39.252 9.6 317 3.1 100810 73
2004-03-12 08:53:29 51°17.739 2°39.247 9 231 3.1 100810 73
2004-03-12 08:53:34 51°17.739 2°39.243 8.5 41 3.1 100810 73
2004-03-12 08:53:39 51°17.738 2°39.239 9 315 3.1 100810 73
2004-03-12 08:53:43 51°17.738 2°39.236 10.2 314 3.1 100800 73
2004-03-12 08:53:49 51°17.737 2°39.232 10.2 313 3.1 100810 72
2004-03-12 08:53:54 51°17.736 2°39.228 9.1 313 3.1 100810 72
2004-03-12 08:53:59 51°17.736 2°39.224 8.2 315 3.1 100810 72
2004-03-12 08:54:03 51°17.735 2°39.221 9 320 3.1 100800 72
2004-03-12 08:54:09 51°17.734 2°39.216 9.3 317 3.1 100800 72
2004-03-12 08:54:14 51°17.734 2°39.213 8.8 317 3.1 100810 72
2004-03-12 08:54:19 51°17.733 2°39.209 9.3 316 3.1 100810 72
2004-03-12 08:54:23 51°17.733 2°39.206 8.5 316 3.1 100810 72
2004-03-12 08:54:29 51°17.732 2°39.202 8.7 39 3.1 100810 72
2004-03-12 08:54:33 51°17.731 2°39.199 8.5 319 3.1 100810 72
2004-03-12 08:54:39 51°17.731 2°39.195 9.5 325 3.1 100810 72
2004-03-12 08:54:43 51°17.73 2°39.192 8.4 325 3.1 100800 72
2004-03-12 08:54:49 51°17.729 2°39.187 8.3 324 3.1 100810 72
2004-03-12 08:54:53 51°17.729 2°39.184 9.2 317 3.1 100810 72
2004-03-12 08:54:59 51°17.728 2°39.18 8.4 318 3.1 100810 72
2004-03-12 08:55:04 51°17.727 2°39.177 8.8 321 3.1 100810 72
2004-03-12 08:55:09 51°17.727 2°39.173 8.9 320 3.1 100810 72
2004-03-12 08:55:14 51°17.726 2°39.17 9.9 320 3.1 100800 72
2004-03-12 08:55:19 51°17.725 2°39.166 9.9 318 3.1 100800 71
2004-03-12 08:55:23 51°17.724 2°39.163 9.6 321 3.1 100800 71
2004-03-12 08:55:29 51°17.724 2°39.159 10.3 318 3.1 100800 71
2004-03-12 08:55:33 51°17.723 2°39.156 10.4 324 3.1 100800 71
2004-03-12 08:55:39 51°17.722 2°39.152 10.4 324 3.1 100800 71
2004-03-12 08:55:43 51°17.721 2°39.149 10.2 327 3.1 100800 71
2004-03-12 08:55:49 51°17.72 2°39.145 9.9 330 3.1 100800 71
2004-03-12 08:55:54 51°17.718 2°39.142 10.8 332 3.1 100800 71
2004-03-12 08:55:59 51°17.716 2°39.139 11 336 3.1 100800 71
2004-03-12 08:56:04 51°17.713 2°39.137 9.9 339 3.1 100800 71
2004-03-12 08:56:09 51°17.711 2°39.135 10.1 344 3 100800 70
2004-03-12 08:56:14 51°17.708 2°39.134 10.9 355 3 100800 70
2004-03-12 08:56:19 51°17.705 2°39.134 10   3 100800 70
2004-03-12 08:56:24 51°17.702 2°39.133 10.2 1 3 100800 70
2004-03-12 08:56:29 51°17.699 2°39.134 10 3 3 100800 70
2004-03-12 08:56:34 51°17.697 2°39.135 10.5 9 3 100800 70
2004-03-12 08:56:39 51°17.694 2°39.137 10.7 21 3 100790 70
2004-03-12 08:56:44 51°17.692 2°39.14 10.5 30 3 100790 70
2004-03-12 08:56:49 51°17.69 2°39.143 11.4 35 3 100800 70
2004-03-12 08:56:53 51°17.689 2°39.146 10.2 35 3 100800 70
2004-03-12 08:56:59 51°17.688 2°39.151 10.5 48 3 100800 70
2004-03-12 08:57:03 51°17.687 2°39.154 10.4 53 3 100800 70
2004-03-12 08:57:09 51°17.687 2°39.16 9.9 53 3 100790 71
2004-03-12 08:57:13 51°17.687 2°39.164 9.2 55 3 100790 71
2004-03-12 08:57:19 51°17.688 2°39.171 10.1 58 3 100780 71
2004-03-12 08:57:23 51°17.689 2°39.175 11.2 59 3 100780 71
2004-03-12 08:57:29 51°17.69 2°39.183 11.4 59 3 100780 71
2004-03-12 08:57:33 51°17.692 2°39.188 12.1 65 3.1 100780 71
2004-03-12 08:57:39 51°17.695 2°39.196 12.2 62 3.1 100770 72
2004-03-12 08:57:43 51°17.697 2°39.202 12.1 61 3.1 100770 72
2004-03-12 08:57:49 51°17.7 2°39.211 11.7 63 3 100800 71
2004-03-12 08:57:53 51°17.701 2°39.217 11.7 62 3 100800 71
2004-03-12 08:57:59 51°17.704 2°39.227 10.4 65 3 100800 71
2004-03-12 08:58:03 51°17.706 2°39.234 10.7 58 3 100770 71
2004-03-12 08:58:09 51°17.709 2°39.244 11.2 62 3 100770 69
2004-03-12 08:58:13 51°17.711 2°39.251 10.5 57 3 100770 69
2004-03-12 08:58:19 51°17.714 2°39.262 9.7 56 3 100780 69
2004-03-12 08:58:23 51°17.715 2°39.27 10.9 57 3 100780 69
2004-03-12 08:58:29 51°17.717 2°39.281 10.6 57 3 100780 70
2004-03-12 08:58:34 51°17.718 2°39.29 10.9   3 100780 70
2004-03-12 08:58:39 51°17.719 2°39.3 10.9 55 3 100780 71
2004-03-12 08:58:44 51°17.72 2°39.31 10.5 45 3 100780 71
2004-03-12 08:58:49 51°17.721 2°39.32 10.5 44 3 100780 72